Time;durP1;ratioP1;P1;durP2;ratioP2;P2;SDS_P1;SDS_P2;PMS_P1;PMS_P2;Temp;Humidity;BMP_temperature;BMP_pressure;BME280_temperature;BME280_humidity;BME280_pressure;Samples;Min_cycle;Max_cycle;Signal;HPM_P1;HPM_P2
2022/09/04 00:02:02;;;;;;;12.47;7.17;;;23.20;83.10;;;;;;1898547;75;20977;-69
2022/09/04 00:04:37;;;;;;;9.93;6.17;;;23.20;83.30;;;;;;1851542;75;21036;-67
2022/09/04 00:07:37;;;;;;;10.00;7.17;;;23.20;83.40;;;;;;1898807;75;20981;-69
2022/09/04 00:10:20;;;;;;;14.18;6.92;;;23.20;83.40;;;;;;1898562;75;21039;-68
2022/09/04 00:12:57;;;;;;;13.80;7.35;;;23.30;83.40;;;;;;1897172;75;20969;-68
2022/09/04 00:15:33;;;;;;;8.15;7.05;;;23.40;83.30;;;;;;1898054;75;21412;-68
2022/09/04 00:18:13;;;;;;;13.55;7.87;;;23.40;83.30;;;;;;1898646;75;20973;-68
2022/09/04 00:20:45;;;;;;;16.35;7.67;;;23.40;83.20;;;;;;1898585;75;21020;-68
2022/09/04 00:23:37;;;;;;;15.20;7.62;;;23.40;83.00;;;;;;1898478;75;20977;-68
2022/09/04 00:26:15;;;;;;;9.63;7.58;;;23.40;83.10;;;;;;1898407;75;21477;-68
2022/09/04 00:28:52;;;;;;;14.07;8.93;;;23.40;83.30;;;;;;1897987;75;21149;-68
2022/09/04 00:31:42;;;;;;;12.65;7.53;;;23.40;83.20;;;;;;1898439;75;20989;-68
2022/09/04 00:34:28;;;;;;;9.80;6.87;;;23.40;83.20;;;;;;1898402;75;20985;-68
2022/09/04 00:37:00;;;;;;;11.15;7.03;;;23.50;83.30;;;;;;1898622;75;21401;-68
2022/09/04 00:39:34;;;;;;;12.93;7.20;;;23.50;83.20;;;;;;1898395;75;21038;-69
2022/09/04 00:42:10;;;;;;;;;;;23.50;83.10;;;;;;1900978;75;20970;-69
2022/09/04 00:45:08;;;;;;;8.43;7.45;;;23.50;83.00;;;;;;1898652;75;20355;-69
2022/09/04 00:48:15;;;;;;;11.15;7.22;;;23.40;83.00;;;;;;1898574;75;21039;-68
2022/09/04 00:51:02;;;;;;;10.10;6.97;;;23.30;83.20;;;;;;1897834;75;20957;-68
2022/09/04 00:53:57;;;;;;;10.75;7.83;;;23.40;83.30;;;;;;1898646;75;21055;-68
2022/09/04 00:56:54;;;;;;;12.03;6.90;;;23.30;83.40;;;;;;1898820;75;20945;-68
2022/09/04 00:59:42;;;;;;;8.55;6.85;;;23.40;83.60;;;;;;1898672;75;20961;-68
2022/09/04 01:02:16;;;;;;;9.80;7.05;;;23.40;83.60;;;;;;1898484;75;21004;-68
2022/09/04 01:05:21;;;;;;;13.22;7.05;;;23.50;83.70;;;;;;1892722;75;20977;-68
2022/09/04 01:07:59;;;;;;;11.67;7.03;;;23.50;83.80;;;;;;1898836;75;20977;-69
2022/09/04 01:10:36;;;;;;;12.30;7.60;;;23.60;83.70;;;;;;1898272;75;21028;-68
2022/09/04 01:13:25;;;;;;;15.00;7.33;;;23.70;83.60;;;;;;1859942;75;21027;-69
2022/09/04 01:16:05;;;;;;;12.18;6.37;;;23.70;83.60;;;;;;1898159;75;21054;-68
2022/09/04 01:18:49;;;;;;;21.87;9.35;;;23.70;83.70;;;;;;1898606;75;20961;-68
2022/09/04 01:21:30;;;;;;;10.20;6.83;;;23.70;83.70;;;;;;1898421;75;20949;-69
2022/09/04 01:24:10;;;;;;;10.93;6.08;;;23.70;83.70;;;;;;1898507;75;21008;-69
2022/09/04 01:27:03;;;;;;;13.13;7.78;;;23.70;83.80;;;;;;1897059;75;21439;-68
2022/09/04 01:29:35;;;;;;;11.38;7.17;;;23.70;83.90;;;;;;1898538;75;20961;-68
2022/09/04 01:32:30;;;;;;;11.20;7.17;;;23.70;84.00;;;;;;1898667;75;21489;-68
2022/09/04 01:35:14;;;;;;;11.95;6.50;;;23.80;84.10;;;;;;1897915;75;21031;-68
2022/09/04 01:38:00;;;;;;;12.43;5.95;;;23.70;84.10;;;;;;1897834;75;20989;-68
2022/09/04 01:40:47;;;;;;;8.48;7.10;;;23.80;84.20;;;;;;1898553;75;20962;-68
2022/09/04 01:43:20;;;;;;;8.80;6.20;;;23.80;84.30;;;;;;1898365;75;21469;-68
2022/09/04 01:46:09;;;;;;;13.00;8.05;;;23.80;84.20;;;;;;1898584;75;20981;-68
2022/09/04 01:48:56;;;;;;;8.55;6.50;;;23.80;84.20;;;;;;1898646;75;20973;-68
2022/09/04 01:51:30;;;;;;;11.85;6.37;;;23.80;84.20;;;;;;1897899;75;20976;-68
2022/09/04 01:54:21;;;;;;;9.30;6.75;;;23.80;84.10;;;;;;1898413;75;21455;-68
2022/09/04 01:57:25;;;;;;;15.85;7.53;;;23.80;84.00;;;;;;1898633;75;21070;-68
2022/09/04 02:00:11;;;;;;;12.40;7.50;;;23.80;83.90;;;;;;1898537;75;21050;-68
2022/09/04 02:03:01;;;;;;;17.52;7.87;;;23.80;84.00;;;;;;1898417;75;21089;-68
2022/09/04 02:05:48;;;;;;;16.55;7.17;;;23.70;83.90;;;;;;1898561;75;21457;-67
2022/09/04 02:08:41;;;;;;;13.03;5.72;;;23.70;84.00;;;;;;1897054;75;20981;-68
2022/09/04 02:11:16;;;;;;;9.43;5.28;;;23.70;84.10;;;;;;1898603;75;20988;-68
2022/09/04 02:14:03;;;;;;;10.28;6.83;;;23.70;84.10;;;;;;1898622;75;20973;-68
2022/09/04 02:16:42;;;;;;;12.03;6.17;;;23.70;84.10;;;;;;1897645;75;20973;-68
2022/09/04 02:19:34;;;;;;;11.55;6.08;;;23.70;83.90;;;;;;1897417;75;20977;-68
2022/09/04 02:22:38;;;;;;;8.93;6.35;;;23.70;83.80;;;;;;1898484;75;21050;-68
2022/09/04 02:25:43;;;;;;;8.33;5.80;;;23.70;83.80;;;;;;1898540;75;20949;-68
2022/09/04 02:28:26;;;;;;;9.58;5.83;;;23.60;83.80;;;;;;1898498;75;21005;-68
2022/09/04 02:31:18;;;;;;;8.95;6.35;;;23.50;83.90;;;;;;1898464;75;21000;-68
2022/09/04 02:34:13;;;;;;;8.48;5.92;;;23.50;84.00;;;;;;1898532;75;20973;-68
2022/09/04 02:36:51;;;;;;;12.15;6.28;;;23.60;84.50;;;;;;1898511;75;21035;-68
2022/09/04 02:39:40;;;;;;;9.65;6.20;;;23.60;83.90;;;;;;1898534;75;20973;-68
2022/09/04 02:42:16;;;;;;;12.28;6.78;;;23.60;83.90;;;;;;1897708;75;20969;-68
2022/09/04 02:44:51;;;;;;;9.60;6.33;;;23.50;83.80;;;;;;1898482;75;20985;-68
2022/09/04 02:47:25;;;;;;;10.60;6.80;;;23.50;83.80;;;;;;1897456;75;20985;-68
2022/09/04 02:50:03;;;;;;;14.70;7.90;;;23.40;83.70;;;;;;1897773;75;20977;-68
2022/09/04 02:52:41;;;;;;;10.43;7.08;;;23.30;83.60;;;;;;1898006;75;21047;-68
2022/09/04 02:55:12;;;;;;;11.55;6.60;;;23.30;83.80;;;;;;1897702;75;21072;-68
2022/09/04 02:58:13;;;;;;;10.82;6.75;;;23.20;84.00;;;;;;1897688;75;20957;-67
2022/09/04 03:00:53;;;;;;;15.85;6.85;;;23.30;84.10;;;;;;1898547;75;21001;-68
2022/09/04 03:03:33;;;;;;;8.70;6.53;;;23.30;84.00;;;;;;1898423;75;20981;-67
2022/09/04 03:06:17;;;;;;;9.98;6.55;;;23.30;83.90;;;;;;1897172;75;20973;-67
2022/09/04 03:08:57;;;;;;;12.37;6.80;;;23.30;83.90;;;;;;1789808;76;21026;-67
2022/09/04 03:11:35;;;;;;;9.65;6.72;;;23.30;83.90;;;;;;1892022;76;21051;-67
2022/09/04 03:14:33;;;;;;;12.98;7.35;;;23.20;83.90;;;;;;1891571;76;21513;-67
2022/09/04 03:17:17;;;;;;;10.53;6.28;;;23.20;84.10;;;;;;1892089;76;20982;-67
2022/09/04 03:20:00;;;;;;;24.47;10.45;;;23.30;84.20;;;;;;1887129;76;20977;-68
2022/09/04 03:22:38;;;;;;;10.40;6.22;;;23.30;84.00;;;;;;1892070;76;20969;-67
2022/09/04 03:25:25;;;;;;;13.13;6.15;;;23.40;83.80;;;;;;1891872;76;21039;-67
2022/09/04 03:27:54;;;;;;;10.15;4.92;;;23.40;83.70;;;;;;1838159;76;20997;-67
2022/09/04 03:30:22;;;;;;;12.07;4.28;;;23.40;83.20;;;;;;1892074;76;20969;-67
2022/09/04 03:33:06;;;;;;;9.03;3.90;;;23.50;82.80;;;;;;1892047;76;21067;-67
2022/09/04 03:35:40;;;;;;;8.60;4.10;;;23.50;82.40;;;;;;1892157;76;20961;-68
2022/09/04 03:38:27;;;;;;;9.33;4.55;;;23.60;82.20;;;;;;1892245;76;20953;-67
2022/09/04 03:41:13;;;;;;;7.15;3.95;;;23.70;81.90;;;;;;1892068;76;20961;-67
2022/09/04 03:43:48;;;;;;;9.33;3.33;;;23.80;81.60;;;;;;1890217;76;21064;-67
2022/09/04 03:46:34;;;;;;;10.72;4.47;;;23.90;81.40;;;;;;1892332;76;20969;-67
2022/09/04 03:49:18;;;;;;;9.13;3.75;;;23.90;81.20;;;;;;1890585;75;20989;-67
2022/09/04 03:51:54;;;;;;;11.70;4.50;;;24.00;81.10;;;;;;1892044;76;21501;-67
2022/09/04 03:54:37;;;;;;;10.15;3.80;;;24.10;80.90;;;;;;1891530;74;21031;-67
2022/09/04 03:57:09;;;;;;;7.10;4.83;;;24.20;80.70;;;;;;1789658;76;21535;-67
2022/09/04 03:59:57;;;;;;;6.30;4.22;;;24.20;80.60;;;;;;1891855;76;20985;-67
2022/09/04 04:02:47;;;;;;;6.45;4.10;;;24.30;80.50;;;;;;1891999;76;21122;-67
2022/09/04 04:05:42;;;;;;;13.28;4.47;;;24.30;80.20;;;;;;1891427;76;21020;-67
2022/09/04 04:08:35;;;;;;;8.03;3.70;;;24.40;80.00;;;;;;1821386;76;21024;-67
2022/09/04 04:11:18;;;;;;;7.33;3.95;;;24.40;79.70;;;;;;1891963;76;20977;-67
2022/09/04 04:14:06;;;;;;;8.40;3.58;;;24.50;79.40;;;;;;1892107;76;21486;-67
2022/09/04 04:17:02;;;;;;;6.95;3.62;;;24.60;79.30;;;;;;1892066;76;20981;-67
2022/09/04 04:19:46;;;;;;;12.23;4.15;;;24.80;78.70;;;;;;1892136;76;20969;-67
2022/09/04 04:22:32;;;;;;;11.22;4.33;;;24.90;78.60;;;;;;1891873;74;21043;-67
2022/09/04 04:25:23;;;;;;;6.65;4.37;;;24.90;78.50;;;;;;1891929;76;21525;-68
2022/09/04 04:28:16;;;;;;;17.10;4.50;;;24.90;78.50;;;;;;1892096;76;21106;-67
2022/09/04 04:30:55;;;;;;;15.32;5.25;;;24.90;78.50;;;;;;1850440;76;21004;-67
2022/09/04 04:33:41;;;;;;;7.55;4.03;;;24.80;78.50;;;;;;1890709;76;21039;-68
2022/09/04 04:36:33;;;;;;;6.70;4.15;;;24.80;78.70;;;;;;1890334;76;21001;-67
2022/09/04 04:39:29;;;;;;;11.90;4.42;;;24.70;78.80;;;;;;1891326;76;20985;-67
2022/09/04 04:42:11;;;;;;;6.87;4.15;;;24.70;78.90;;;;;;1786175;79;21054;-67
2022/09/04 04:47:57;;;;;;;7.50;3.85;;;24.80;79.10;;;;;;1873211;76;21498;-67
2022/09/04 04:50:58;;;;;;;5.62;4.22;;;24.80;78.90;;;;;;1881709;76;21028;-68
2022/09/04 04:53:46;;;;;;;7.75;4.75;;;24.80;78.80;;;;;;1891924;76;21415;-67
2022/09/04 04:56:32;;;;;;;13.68;5.20;;;24.80;78.90;;;;;;1891932;76;21039;-67
2022/09/04 04:59:22;;;;;;;12.23;4.40;;;24.70;78.90;;;;;;1891913;76;20969;-67
2022/09/04 05:01:54;;;;;;;9.68;5.33;;;24.70;79.00;;;;;;1892002;76;20973;-67
2022/09/04 05:04:28;;;;;;;7.92;3.90;;;24.60;79.20;;;;;;1891645;75;20992;-67
2022/09/04 05:07:08;;;;;;;6.53;3.83;;;24.60;79.30;;;;;;1828039;75;21525;-66
2022/09/04 05:09:54;;;;;;;6.75;4.00;;;24.70;79.40;;;;;;1900889;75;20992;-67
2022/09/04 05:12:38;;;;;;;8.78;4.12;;;24.70;79.30;;;;;;1900970;75;21395;-67
2022/09/04 05:15:24;;;;;;;7.45;4.00;;;24.80;79.40;;;;;;1901313;75;20965;-67
2022/09/04 05:18:14;;;;;;;6.30;4.17;;;24.80;79.10;;;;;;1891733;75;21368;-67
2022/09/04 05:20:45;;;;;;;9.15;3.98;;;24.90;79.10;;;;;;1901262;75;21027;-67
2022/09/04 05:23:33;;;;;;;8.08;3.83;;;25.00;79.10;;;;;;1900673;75;21086;-67
2022/09/04 05:26:08;;;;;;;7.62;3.92;;;25.10;78.90;;;;;;1901409;75;20977;-67
2022/09/04 05:28:49;;;;;;;;;;;25.20;78.80;;;;;;1903991;75;20960;-67
2022/09/04 05:31:42;;;;;;;8.25;3.83;;;25.20;78.10;;;;;;1900559;75;20104;-67
2022/09/04 05:34:13;;;;;;;10.45;3.90;;;25.30;78.40;;;;;;1837816;75;21034;-67
2022/09/04 05:37:09;;;;;;;8.28;3.62;;;25.40;78.20;;;;;;1873465;75;20985;-67
2022/09/04 05:39:58;;;;;;;10.15;3.80;;;25.40;78.00;;;;;;1901316;75;21009;-67
2022/09/04 05:42:46;;;;;;;12.40;3.87;;;25.50;77.90;;;;;;1869390;75;21447;-67
2022/09/04 05:45:40;;;;;;;5.35;3.37;;;25.50;77.80;;;;;;1900095;74;20957;-67
2022/09/04 05:48:27;;;;;;;6.85;3.85;;;25.60;77.70;;;;;;1901456;75;21408;-67
2022/09/04 05:51:14;;;;;;;11.90;3.67;;;25.60;77.70;;;;;;1901175;75;20989;-67
2022/09/04 05:53:55;;;;;;;9.03;4.65;;;25.70;78.00;;;;;;1901446;75;21411;-67
2022/09/04 05:56:41;;;;;;;6.80;3.80;;;25.70;78.00;;;;;;1901428;75;21098;-67
2022/09/04 05:59:33;;;;;;;9.65;3.70;;;25.80;77.60;;;;;;1900281;75;21431;-67
2022/09/04 06:02:07;;;;;;;14.65;4.30;;;25.80;77.30;;;;;;1901430;75;21051;-67
2022/09/04 06:04:40;;;;;;;;;;;25.90;76.80;;;;;;1902102;75;21447;-67
2022/09/04 06:07:23;;;;;;;13.93;3.60;;;26.00;76.10;;;;;;1899848;75;20094;-67
2022/09/04 06:10:29;;;;;;;7.45;3.15;;;26.00;76.50;;;;;;1901477;75;20973;-66
2022/09/04 06:13:18;;;;;;;7.72;3.35;;;26.10;76.40;;;;;;1901493;75;21832;-66
2022/09/04 06:16:10;;;;;;;6.53;3.55;;;26.10;75.90;;;;;;1900031;75;20985;-66
2022/09/04 06:19:00;;;;;;;8.33;3.02;;;26.10;74.60;;;;;;1900539;75;20993;-66
2022/09/04 06:21:41;;;;;;;5.97;2.52;;;26.10;73.50;;;;;;1901387;75;21505;-66
2022/09/04 06:24:41;;;;;;;12.68;2.33;;;26.00;71.80;;;;;;1901331;75;21411;-67
2022/09/04 06:27:27;;;;;;;13.80;3.47;;;25.90;70.80;;;;;;1901453;75;21027;-66
2022/09/04 06:30:10;;;;;;;5.97;2.87;;;25.80;69.80;;;;;;1901369;75;21481;-66
2022/09/04 06:32:57;;;;;;;10.53;2.50;;;25.80;69.60;;;;;;1901301;75;20984;-66
2022/09/04 06:35:35;;;;;;;9.43;2.92;;;25.80;69.00;;;;;;1900770;75;20985;-66
2022/09/04 06:38:13;;;;;;;16.55;4.15;;;25.80;67.30;;;;;;1901440;75;21519;-66
2022/09/04 06:41:14;;;;;;;17.75;3.08;;;25.80;66.90;;;;;;1901493;75;20945;-66
2022/09/04 06:43:49;;;;;;;9.88;2.05;;;25.90;65.90;;;;;;1901313;75;21017;-67
2022/09/04 06:46:33;;;;;;;11.73;2.22;;;26.00;65.90;;;;;;1901324;75;21063;-67
2022/09/04 06:49:22;;;;;;;7.92;2.40;;;26.10;65.80;;;;;;1900810;74;21050;-67
2022/09/04 06:52:11;;;;;;;9.48;2.80;;;26.20;65.70;;;;;;1901520;75;20941;-67
2022/09/04 06:55:08;;;;;;;6.00;2.47;;;26.30;65.30;;;;;;1901365;75;21051;-67
2022/09/04 06:58:04;;;;;;;14.43;3.58;;;26.40;65.60;;;;;;1901425;75;21344;-67
2022/09/04 07:00:52;;;;;;;13.22;3.72;;;26.50;65.60;;;;;;1901317;75;21451;-67
2022/09/04 07:03:18;;;;;;;;;;;26.50;64.20;;;;;;1903662;75;20981;-67
2022/09/04 07:05:56;;;;;;;21.27;8.20;;;26.50;63.70;;;;;;1888279;75;20089;-67
2022/09/04 07:08:53;;;;;;;8.80;4.40;;;26.50;64.00;;;;;;1898265;75;21017;-67
2022/09/04 07:11:30;;;;;;;15.72;5.83;;;26.50;63.40;;;;;;1891406;76;21079;-67
2022/09/04 07:14:20;;;;;;;16.42;5.92;;;26.40;63.80;;;;;;1892129;76;21048;-67
2022/09/04 07:16:55;;;;;;;14.00;5.22;;;26.50;64.00;;;;;;1890820;76;21502;-67
2022/09/04 07:19:33;;;;;;;;;;;26.70;64.00;;;;;;1894878;76;20977;-66
2022/09/04 07:22:20;;;;;;;25.57;3.15;;;26.80;60.60;;;;;;1890709;76;20101;-66
2022/09/04 07:25:08;;;;;;;6.08;2.47;;;26.80;61.40;;;;;;1890580;74;21052;-67
2022/09/04 07:27:59;;;;;;;9.23;2.40;;;26.70;61.20;;;;;;1892059;76;21485;-67
2022/09/04 07:30:31;;;;;;;13.78;3.10;;;26.70;60.60;;;;;;1891931;76;20969;-66
2022/09/04 07:33:08;;;;;;;20.68;6.85;;;26.70;61.00;;;;;;1891908;76;21039;-67
2022/09/04 07:35:42;;;;;;;11.90;5.55;;;26.80;61.40;;;;;;1891163;76;21050;-67
2022/09/04 07:38:42;;;;;;;9.58;3.10;;;26.80;60.70;;;;;;1892135;76;21481;-67
2022/09/04 07:41:18;;;;;;;26.73;9.93;;;26.90;60.90;;;;;;1891868;76;21409;-67
2022/09/04 07:43:50;;;;;;;10.40;3.35;;;26.90;60.30;;;;;;1891969;76;20989;-67
2022/09/04 07:46:33;;;;;;;8.30;2.55;;;27.00;59.70;;;;;;1891982;76;20981;-66
2022/09/04 07:49:10;;;;;;;5.70;2.47;;;27.00;58.80;;;;;;1890886;75;21444;-67
2022/09/04 07:51:57;;;;;;;13.68;2.62;;;27.00;58.10;;;;;;1889927;76;20989;-67
2022/09/04 07:54:37;;;;;;;8.63;2.27;;;26.90;58.00;;;;;;1890041;74;21048;-67
2022/09/04 07:57:25;;;;;;;10.23;2.62;;;27.00;58.10;;;;;;1890610;76;20965;-67
2022/09/04 08:00:16;;;;;;;5.05;2.70;;;27.00;57.30;;;;;;1891961;76;21357;-67
2022/09/04 08:03:03;;;;;;;18.20;2.58;;;27.00;57.50;;;;;;1892127;76;20996;-67
2022/09/04 08:05:39;;;;;;;9.48;4.25;;;27.00;57.00;;;;;;1889988;76;20977;-67
2022/09/04 08:08:19;;;;;;;7.87;2.00;;;27.00;56.90;;;;;;1892005;76;21478;-67
2022/09/04 08:11:22;;;;;;;7.78;1.87;;;27.00;57.00;;;;;;1891909;76;20962;-67
2022/09/04 08:14:18;;;;;;;8.35;2.45;;;27.10;57.20;;;;;;1891991;76;21047;-67
2022/09/04 08:17:19;;;;;;;11.48;2.52;;;27.00;56.20;;;;;;1891880;76;21470;-67
2022/09/04 08:19:46;;;;;;;5.62;2.08;;;27.00;56.50;;;;;;1890680;76;20985;-67
2022/09/04 08:22:18;;;;;;;6.08;3.70;;;27.10;56.30;;;;;;1891228;76;21055;-67
2022/09/04 08:24:56;;;;;;;8.20;2.05;;;27.10;56.30;;;;;;1890078;75;20994;-67
2022/09/04 08:27:37;;;;;;;29.18;6.03;;;27.10;55.40;;;;;;1892068;76;21039;-67
2022/09/04 08:30:08;;;;;;;12.88;4.80;;;27.10;56.00;;;;;;1891934;76;20993;-67
2022/09/04 08:32:56;;;;;;;8.73;2.80;;;27.10;56.20;;;;;;1891990;76;20985;-67
2022/09/04 08:35:33;;;;;;;5.22;1.22;;;27.20;55.20;;;;;;1891992;76;20982;-67
2022/09/04 08:38:14;;;;;;;6.55;1.72;;;27.20;54.90;;;;;;1892051;76;21035;-67
2022/09/04 08:41:09;;;;;;;5.65;1.70;;;27.10;54.70;;;;;;1892004;76;21039;-67
2022/09/04 08:43:57;;;;;;;17.77;4.83;;;27.10;55.00;;;;;;1889069;76;20965;-67
2022/09/04 08:46:43;;;;;;;9.90;2.17;;;27.10;55.00;;;;;;1891882;76;20969;-67
2022/09/04 08:49:33;;;;;;;10.70;1.95;;;27.20;54.30;;;;;;1891899;76;21009;-68
2022/09/04 08:52:07;;;;;;;6.42;1.75;;;27.20;54.60;;;;;;1891903;76;20977;-67
2022/09/04 08:55:06;;;;;;;8.48;2.10;;;27.20;54.10;;;;;;1892062;76;21059;-67
2022/09/04 08:57:43;;;;;;;6.55;1.80;;;27.20;54.10;;;;;;1891924;76;21404;-68
2022/09/04 09:00:24;;;;;;;7.97;1.77;;;27.20;53.70;;;;;;1891874;76;20989;-67
2022/09/04 09:03:28;;;;;;;4.67;2.05;;;27.20;53.10;;;;;;1891416;76;21384;-68
2022/09/04 09:06:28;;;;;;;41.15;8.93;;;27.20;52.10;;;;;;1888240;74;21447;-68
2022/09/04 09:09:19;;;;;;;8.15;2.17;;;27.20;51.90;;;;;;1892299;75;21372;-68
2022/09/04 09:12:03;;;;;;;9.33;2.25;;;27.20;52.10;;;;;;1898418;75;21063;-68
2022/09/04 09:14:57;;;;;;;5.25;1.77;;;27.20;52.60;;;;;;1888776;74;20957;-68
2022/09/04 09:17:52;;;;;;;9.65;2.27;;;27.20;53.00;;;;;;1896627;75;20984;-68
2022/09/04 09:20:32;;;;;;;4.72;2.05;;;27.20;52.90;;;;;;1897199;75;21064;-68
2022/09/04 09:23:18;;;;;;;4.33;1.72;;;27.30;52.60;;;;;;1897073;75;20993;-67
2022/09/04 09:25:50;;;;;;;9.35;1.77;;;27.20;53.50;;;;;;1898479;75;21422;-68
2022/09/04 09:28:37;;;;;;;8.13;2.85;;;27.30;53.40;;;;;;1898437;75;21047;-68
2022/09/04 09:31:27;;;;;;;10.15;2.72;;;27.30;53.30;;;;;;1828642;77;21053;-68
2022/09/04 09:34:19;;;;;;;11.33;2.52;;;27.30;53.60;;;;;;1887590;75;21380;-68
2022/09/04 09:37:22;;;;;;;5.22;1.80;;;27.30;53.90;;;;;;1798754;76;21034;-64
2022/09/04 09:40:22;;;;;;;13.88;3.67;;;27.30;54.10;;;;;;1898419;75;21427;-68
2022/09/04 09:43:13;;;;;;;16.90;5.53;;;27.30;54.20;;;;;;1898373;75;21383;-67
2022/09/04 09:46:03;;;;;;;14.75;4.37;;;27.20;53.50;;;;;;1898456;75;21031;-68
2022/09/04 09:48:57;;;;;;;11.15;2.90;;;27.20;53.90;;;;;;1898439;75;20973;-68
2022/09/04 09:51:35;;;;;;;8.80;3.10;;;27.20;53.40;;;;;;1898660;75;20977;-68
2022/09/04 09:54:12;;;;;;;11.73;2.50;;;27.10;53.30;;;;;;1898468;75;20981;-68
2022/09/04 09:57:15;;;;;;;4.45;1.70;;;27.00;53.50;;;;;;1898552;75;21039;-68
2022/09/04 10:00:05;;;;;;;6.37;2.12;;;27.00;52.80;;;;;;1898494;75;21446;-68
2022/09/04 10:03:06;;;;;;;13.22;2.98;;;26.90;53.20;;;;;;1897989;75;20988;-68
2022/09/04 10:06:12;;;;;;;8.38;3.33;;;26.90;53.00;;;;;;1898582;75;20977;-68
2022/09/04 10:08:56;;;;;;;9.70;2.55;;;26.90;52.80;;;;;;1897345;74;20985;-67
2022/09/04 10:12:00;;;;;;;8.88;2.10;;;26.80;53.10;;;;;;1892829;75;21100;-68
2022/09/04 10:14:47;;;;;;;8.00;2.20;;;26.80;53.30;;;;;;1892256;76;21051;-68
2022/09/04 10:17:37;;;;;;;4.45;2.08;;;26.80;53.30;;;;;;1889734;76;21052;-68
2022/09/04 10:20:12;;;;;;;25.82;11.45;;;26.70;52.70;;;;;;1815822;78;20983;-68
2022/09/04 10:22:43;;;;;;;11.20;3.83;;;26.70;53.40;;;;;;1814403;79;21105;-68
2022/09/04 10:25:37;;;;;;;4.90;2.58;;;26.70;52.50;;;;;;1847512;76;21059;-68
2022/09/04 10:28:09;;;;;;;8.93;2.75;;;26.80;53.20;;;;;;1891985;76;20981;-68
2022/09/04 10:31:03;;;;;;;6.40;2.50;;;26.70;52.90;;;;;;1889779;76;21420;-68
2022/09/04 10:33:56;;;;;;;5.10;2.17;;;26.60;52.90;;;;;;1892096;76;20974;-68
2022/09/04 10:36:39;;;;;;;8.25;1.82;;;26.60;53.00;;;;;;1785770;79;21278;-68
2022/09/04 10:42:23;;;;;;;8.63;2.87;;;26.30;53.60;;;;;;1863317;76;20973;-68
2022/09/04 10:45:03;;;;;;;6.53;2.10;;;26.40;53.80;;;;;;1892054;76;20973;-68
2022/09/04 10:47:38;;;;;;;5.22;2.75;;;26.40;53.30;;;;;;1887008;76;20981;-68
2022/09/04 10:50:16;;;;;;;;;;;26.30;53.50;;;;;;1836088;76;20996;-68
2022/09/04 10:53:19;;;;;;;3.50;1.62;;;26.30;53.90;;;;;;1892001;76;20097;-67
2022/09/04 10:56:04;;;;;;;8.35;2.00;;;26.30;53.60;;;;;;1892011;76;21501;-67
2022/09/04 10:58:43;;;;;;;7.87;3.00;;;26.30;53.60;;;;;;1892140;76;20989;-67
2022/09/04 11:01:36;;;;;;;8.35;2.42;;;26.30;54.10;;;;;;1891863;75;20958;-68
2022/09/04 11:04:30;;;;;;;11.25;1.90;;;26.30;53.60;;;;;;1892083;76;21068;-68
2022/09/04 11:07:27;;;;;;;6.17;2.12;;;26.30;52.90;;;;;;1889677;76;20958;-68
2022/09/04 11:10:07;;;;;;;12.88;3.92;;;26.30;53.00;;;;;;1890556;75;21411;-68
2022/09/04 11:12:51;;;;;;;7.42;4.20;;;26.20;53.70;;;;;;1898666;75;21423;-67
2022/09/04 11:15:50;;;;;;;8.98;3.55;;;26.20;54.40;;;;;;1898668;75;21510;-68
2022/09/04 11:18:44;;;;;;;7.12;2.25;;;26.30;54.40;;;;;;1898600;75;20981;-67
2022/09/04 11:21:21;;;;;;;7.35;2.35;;;26.30;54.00;;;;;;1898507;75;21439;-67
2022/09/04 11:24:01;;;;;;;6.35;1.90;;;26.30;53.40;;;;;;1898504;75;20977;-67
2022/09/04 11:26:52;;;;;;;6.05;2.87;;;26.30;53.20;;;;;;1897775;75;21025;-68
2022/09/04 11:29:33;;;;;;;14.55;3.75;;;26.20;52.70;;;;;;1898603;75;20961;-67
2022/09/04 11:32:25;;;;;;;11.03;2.90;;;26.10;52.30;;;;;;1898556;75;21000;-67
2022/09/04 11:35:18;;;;;;;10.40;5.30;;;26.10;52.50;;;;;;1896777;75;20949;-67
2022/09/04 11:38:16;;;;;;;6.45;1.70;;;26.10;53.20;;;;;;1898487;75;21493;-68
2022/09/04 11:41:08;;;;;;;5.05;1.87;;;26.10;53.60;;;;;;1898462;75;20977;-68
2022/09/04 11:43:55;;;;;;;3.95;1.92;;;26.10;53.00;;;;;;1896344;75;20989;-68
2022/09/04 11:46:33;;;;;;;3.72;1.70;;;26.10;53.30;;;;;;1898372;75;20989;-68
2022/09/04 11:49:20;;;;;;;8.33;1.95;;;26.20;53.70;;;;;;1864461;75;21043;-68
2022/09/04 11:52:17;;;;;;;6.15;1.80;;;26.20;53.80;;;;;;1898505;75;21055;-68
2022/09/04 11:54:54;;;;;;;6.03;1.82;;;26.20;53.30;;;;;;1898485;75;21043;-68
2022/09/04 11:57:38;;;;;;;12.28;2.15;;;26.10;52.60;;;;;;1897832;75;21028;-68
2022/09/04 12:00:12;;;;;;;8.20;1.62;;;26.10;52.70;;;;;;1898594;75;20985;-68
2022/09/04 12:03:01;;;;;;;4.50;1.60;;;26.10;53.10;;;;;;1897806;75;21379;-68
2022/09/04 12:05:38;;;;;;;5.40;2.62;;;26.00;53.10;;;;;;1895547;75;21062;-69
2022/09/04 12:08:18;;;;;;;8.25;2.00;;;26.10;53.40;;;;;;1898608;75;21490;-69
2022/09/04 12:11:05;;;;;;;14.70;4.22;;;26.10;53.40;;;;;;1898612;75;21463;-69
2022/09/04 12:13:56;;;;;;;19.65;11.00;;;26.10;52.50;;;;;;1898546;75;21380;-69
2022/09/04 12:16:49;;;;;;;6.75;2.00;;;26.10;52.10;;;;;;1898532;75;20985;-69
2022/09/04 12:19:25;;;;;;;6.92;2.50;;;26.00;52.20;;;;;;1898510;75;20973;-69
2022/09/04 12:22:06;;;;;;;5.58;2.17;;;25.90;52.80;;;;;;1897494;74;21067;-69
2022/09/04 12:24:43;;;;;;;4.75;1.85;;;25.90;53.60;;;;;;1897700;75;20953;-70
2022/09/04 12:27:34;;;;;;;3.12;1.50;;;25.80;53.60;;;;;;1897513;75;20988;-69
2022/09/04 12:30:15;;;;;;;8.60;1.85;;;25.80;53.70;;;;;;1898549;75;21087;-70
2022/09/04 12:33:03;;;;;;;11.35;3.25;;;25.80;54.00;;;;;;1839824;75;20981;-70
2022/09/04 12:35:59;;;;;;;15.32;4.87;;;25.70;54.20;;;;;;1898531;75;21031;-70
2022/09/04 12:38:54;;;;;;;12.35;3.00;;;25.70;54.30;;;;;;1898381;75;20973;-70
2022/09/04 12:41:29;;;;;;;9.03;2.15;;;25.60;54.80;;;;;;1898298;75;20957;-70
2022/09/04 12:44:03;;;;;;;3.80;1.92;;;25.60;54.90;;;;;;1897773;75;20992;-71
2022/09/04 12:46:54;;;;;;;2.65;1.60;;;25.60;54.00;;;;;;1898466;75;21043;-71
2022/09/04 12:49:50;;;;;;;4.00;1.30;;;25.60;54.10;;;;;;1898548;75;21055;-71
2022/09/04 12:52:41;;;;;;;4.50;1.87;;;25.60;54.00;;;;;;1897202;75;20961;-72
2022/09/04 12:55:13;;;;;;;7.03;1.80;;;25.60;53.90;;;;;;1867977;75;21019;-72
2022/09/04 12:57:47;;;;;;;2.27;1.60;;;25.70;54.00;;;;;;1898315;75;21044;-72
2022/09/04 13:00:17;;;;;;;7.30;2.12;;;25.70;53.90;;;;;;1898743;75;21063;-72
2022/09/04 13:02:56;;;;;;;6.12;2.35;;;25.80;54.00;;;;;;1898504;75;21056;-72
2022/09/04 13:05:51;;;;;;;3.92;1.42;;;25.80;53.70;;;;;;1898511;75;20988;-73
2022/09/04 13:08:25;;;;;;;12.75;2.35;;;25.80;53.40;;;;;;1896467;75;20961;-72
2022/09/04 13:11:12;;;;;;;;;;;25.80;53.20;;;;;;1900163;75;21056;-72
2022/09/04 13:14:06;;;;;;;5.75;2.15;;;25.70;52.50;;;;;;1898460;75;20144;-73
2022/09/04 13:16:52;;;;;;;5.00;1.70;;;25.70;53.80;;;;;;1898730;75;20977;-73
2022/09/04 13:19:45;;;;;;;8.08;1.90;;;25.80;53.80;;;;;;1870931;74;20989;-74
2022/09/04 13:22:32;;;;;;;8.23;2.35;;;25.80;53.70;;;;;;1897770;75;21066;-74
2022/09/04 13:25:09;;;;;;;3.70;1.50;;;25.70;53.60;;;;;;1898562;75;20973;-75
2022/09/04 13:27:58;;;;;;;4.20;1.70;;;25.70;53.60;;;;;;1897779;75;20953;-75
2022/09/04 13:30:29;;;;;;;4.72;1.87;;;25.60;53.00;;;;;;1895789;75;20976;-75
2022/09/04 13:33:18;;;;;;;4.45;1.75;;;25.50;52.70;;;;;;1898573;75;20969;-74
2022/09/04 13:35:59;;;;;;;3.95;2.17;;;25.50;52.80;;;;;;1898228;75;21025;-74
2022/09/04 13:38:56;;;;;;;7.12;2.40;;;25.40;53.20;;;;;;1897354;75;20992;-74
2022/09/04 13:41:47;;;;;;;10.13;3.98;;;25.30;53.30;;;;;;1898385;75;20985;-74
2022/09/04 13:44:37;;;;;;;6.85;2.55;;;25.10;53.50;;;;;;1898393;75;20973;-74
2022/09/04 13:47:11;;;;;;;10.95;3.90;;;25.00;53.50;;;;;;1898457;75;20976;-73
2022/09/04 13:49:46;;;;;;;11.12;3.55;;;24.90;53.30;;;;;;1896934;75;21059;-74
2022/09/04 13:52:23;;;;;;;12.35;5.30;;;24.70;53.60;;;;;;1898464;75;20977;-74
2022/09/04 13:55:03;;;;;;;4.85;2.20;;;24.70;54.20;;;;;;1897996;75;20981;-74
2022/09/04 13:57:38;;;;;;;4.53;1.47;;;24.70;54.40;;;;;;1896925;75;20988;-74
2022/09/04 14:00:10;;;;;;;4.42;1.75;;;24.70;54.50;;;;;;1898647;75;20945;-73
2022/09/04 14:02:40;;;;;;;7.30;2.02;;;24.70;54.70;;;;;;1898598;75;21489;-75
2022/09/04 14:05:19;;;;;;;9.98;2.85;;;24.60;54.80;;;;;;1898589;75;21000;-74
2022/09/04 14:07:50;;;;;;;4.70;1.98;;;24.70;54.90;;;;;;1898495;75;21016;-73
2022/09/04 14:10:23;;;;;;;7.08;1.87;;;24.70;54.90;;;;;;1898547;75;21451;-73
2022/09/04 14:13:01;;;;;;;6.03;2.95;;;24.60;54.80;;;;;;1898043;75;21495;-73
2022/09/04 14:15:39;;;;;;;4.97;2.15;;;24.60;55.30;;;;;;1898665;75;20977;-74
2022/09/04 14:18:14;;;;;;;4.67;2.35;;;24.50;55.60;;;;;;1898570;75;20973;-74
2022/09/04 14:20:58;;;;;;;9.70;1.90;;;24.50;55.20;;;;;;1893804;75;21531;-74
2022/09/04 14:23:51;;;;;;;5.35;2.62;;;24.50;54.80;;;;;;1898504;75;21117;-74